• Join FlightAware (Why Join?)
  • Login
  • US Flag 
08:45PM EDT


 

Airport Tracker/Info


-or-


 

Live Flight TrackerFlight Track Log ✈ SWA3685 ✈ 2013年 05月 03日 ✈ KPHX - KABQ

Flight Track Log - Related Links

Times and Time Zones

All times are in EDT time to prevent confusion due to time zone crossing. See the SWA3685 flight status page for this flight to view local times or setup timezone preferences in your user account.

Time Position Orientation Groundspeed Altitude Reporting Facility
EDT Latitude Longitude Course Direction KTS MPH feet Rate Location/Type
09:28AM 33.4333 -111.9833 90° East 337 388 2,600  Level Phoenix TRACON
09:29AM 33.4333 -111.9500 90° East 184 212 4,100 2,520 Climbing Phoenix TRACON
09:30AM 33.4333 -111.8667 90° East 239 275 7,200 3,300 Climbing Phoenix TRACON
09:31AM 33.4758 -111.7878 57° Northeast 291 335 11,100 3,480 Climbing Albuquerque Center
09:32AM 33.5258 -111.6983 56° Northeast 323 372 14,600 3,480 Climbing Albuquerque Center
09:33AM 33.5683 -111.5925 64° Northeast 353 406 18,200 3,720 Climbing Albuquerque Center
09:34AM 33.6194 -111.4531 66° East 383 441 22,200 3,360 Climbing Albuquerque Center
09:35AM 33.6658 -111.3314 65° Northeast 402 463 25,100 2,640 Climbing Albuquerque Center
09:36AM 33.7122 -111.2017 67° East 424 488 27,600 2,340 Climbing Albuquerque Center
09:37AM 33.7597 -111.0647 67° East 444 511 29,900 2,040 Climbing Albuquerque Center
09:38AM 33.8103 -110.9231 67° East 458 527 31,800 1,860 Climbing Albuquerque Center
09:39AM 33.8614 -110.7789 67° East 469 540 33,700 1,980 Climbing Albuquerque Center
09:40AM 33.9131 -110.6314 67° East 476 548 35,900 1,860 Climbing Albuquerque Center
09:41AM 33.9650 -110.4861 67° East 476 548 37,600 1,560 Climbing Albuquerque Center
09:42AM 34.0158 -110.3411 67° East 479 551 39,100 1,500 Climbing Albuquerque Center
09:43AM 34.0769 -110.1628 67° East 482 555 40,700 900 Climbing Albuquerque Center
09:44AM 34.1294 -110.0078 68° East 479 551 41,000 120 Climbing Albuquerque Center
09:45AM 34.1786 -109.8672 67° East 478 550 41,000  Level Albuquerque Center
09:46AM 34.2278 -109.7267 67° East 475 547 41,000  Level Albuquerque Center
09:47AM 34.2831 -109.5628 68° East 472 543 41,000  Level Albuquerque Center
09:48AM 34.3311 -109.4233 67° East 472 543 41,000  Level Albuquerque Center
09:49AM 34.3792 -109.2822 68° East 473 544 41,000  Level Albuquerque Center
09:50AM 34.4281 -109.1128 71° East 474 545 41,000 -180 Level Albuquerque Center
09:51AM 34.4478 -108.9578 81° East 483 556 40,700 -960 Descending Albuquerque Center
09:52AM 34.4711 -108.7794 81° East 483 556 39,100 -1,440 Descending Albuquerque Center
09:53AM 34.4908 -108.6256 81° East 484 557 37,800 -1,740 Descending Albuquerque Center
09:54AM 34.5106 -108.4650 81° East 485 558 35,600 -2,640 Descending Albuquerque Center
09:55AM 34.5389 -108.3067 78° East 484 557 32,500 -2,820 Descending Albuquerque Center
09:56AM 34.5653 -108.1525 78° East 475 547 29,900 -2,460 Descending Albuquerque Center
09:57AM 34.5906 -108.0033 78° East 459 528 27,500 -2,340 Descending Albuquerque Center
09:58AM 34.6139 -107.8608 79° East 441 507 25,200 -2,280 Descending Albuquerque Center
09:59AM 34.6547 -107.7328 69° East 410 472 22,900 -2,400 Descending Albuquerque Center
10:00AM 34.7150 -107.5933 62° Northeast 393 452 20,400 -2,340 Descending Albuquerque Center
10:01AM 34.7275 -107.5592 66° East 381 438 19,800 -1,980 Descending Albuquerque Center
10:01AM 34.7633 -107.4836 60° Northeast 377 434 18,400 -1,980 Descending Albuquerque Center
10:02AM 34.7950 -107.4031 64° Northeast 353 406 17,100 -1,800 Descending Albuquerque Center
10:02AM 34.8078 -107.3783 58° Northeast 358 412 16,600 -1,740 Descending Albuquerque Center
10:03AM 34.8442 -107.2903 63° Northeast 350 403 15,200 -1,680 Descending Albuquerque Center
10:04AM 34.8708 -107.2214 65° Northeast 327 376 14,100 -1,560 Descending Albuquerque Center
10:04AM 34.8914 -107.1769 61° Northeast 327 376 13,300 -1,800 Descending Albuquerque Center
10:05AM 34.9131 -107.1203 65° Northeast 309 356 12,300 -1,560 Descending Albuquerque Center
10:05AM 34.9292 -107.0842 61° Northeast 316 364 11,700 -1,620 Descending Albuquerque Center
10:06AM 34.9528 -107.0275 63° Northeast 304 350 10,700 -1,500 Descending Albuquerque Center
10:06AM 34.9650 -106.9914 68° East 309 356 10,200 -1,620 Descending Albuquerque Center
10:07AM 34.9819 -106.9372 69° East 289 333 9,100 -1,500 Descending Albuquerque Center
10:07AM 34.9933 -106.9008 69° East 300 345 8,700 -960 Descending Albuquerque Center
10:08AM 35.0164 -106.8275 69° East 277 319 8,000 -720 Descending Albuquerque Center
10:08AM 35.0239 -106.8011 71° East 281 323 8,000 -180 Level Albuquerque Center
10:09AM 35.0342 -106.7711 67° East 231 266 7,900 -600 Descending Albuquerque Center
10:09AM 35.0431 -106.7347 73° East 234 269 7,400 -1,200 Descending Albuquerque Center
10:10AM 35.0436 -106.7011 89° East 163 188 6,600 -1,140 Descending Albuquerque Center
10:10AM 35.0442 -106.6794 88° East 188 216 6,300 -720 Descending Albuquerque Center
10:11AM 35.0447 -106.6594 88° East 129 148 6,000 -720 Descending Albuquerque Center
10:12AM 35.0442 -106.6325 91° East 159 183 5,600 -660 Descending Albuquerque Center
10:13AM 35.0402 -106.6092 84° East  Level Estimated
10:20AM 35.0402 -106.6092 84° East  Level Estimated